createdAt,value
2023-09-29T00:01:27.703Z,3.50
2023-09-29T00:04:30.533Z,3.75
2023-09-29T00:07:33.311Z,3.72
2023-09-29T00:10:36.873Z,3.15
2023-09-29T00:13:41.116Z,3.08
2023-09-29T00:16:43.934Z,3.00
2023-09-29T00:19:46.661Z,2.80
2023-09-29T00:22:49.380Z,3.05
2023-09-29T00:25:52.068Z,2.70
2023-09-29T00:28:57.261Z,2.97
2023-09-29T00:32:00.134Z,2.90
2023-09-29T00:35:05.333Z,2.83
2023-09-29T00:38:08.216Z,3.00
2023-09-29T00:41:11.125Z,3.13
2023-09-29T00:44:15.309Z,2.88
2023-09-29T00:47:18.266Z,3.00
2023-09-29T00:50:22.464Z,2.88
2023-09-29T00:53:25.554Z,2.53
2023-09-29T00:56:29.524Z,2.40
2023-09-29T00:59:35.286Z,2.58
2023-09-29T01:02:38.645Z,3.30
2023-09-29T01:05:44.074Z,2.60
2023-09-29T01:08:47.215Z,3.03
2023-09-29T01:11:50.486Z,2.80
2023-09-29T01:14:54.650Z,2.70
2023-09-29T01:17:57.578Z,3.00
2023-09-29T01:21:00.465Z,2.78
2023-09-29T01:24:07.158Z,2.63
2023-09-29T01:27:09.856Z,2.70
2023-09-29T01:30:14.828Z,2.42
2023-09-29T01:33:20.698Z,2.50
2023-09-29T01:36:23.430Z,2.53
2023-09-29T01:39:28.301Z,2.10
2023-09-29T01:42:31.010Z,2.33
2023-09-29T01:45:35.057Z,2.60
2023-09-29T01:48:37.935Z,2.95
2023-09-29T01:51:40.766Z,2.50
2023-09-29T01:54:45.776Z,1.98
2023-09-29T01:57:49.642Z,2.28
2023-09-29T02:00:52.451Z,3.08
2023-09-29T02:03:55.322Z,2.35
2023-09-29T02:06:58.314Z,2.47
2023-09-29T02:10:02.454Z,2.55
2023-09-29T02:13:06.584Z,2.30
2023-09-29T02:16:15.726Z,2.38
2023-09-29T02:19:18.685Z,2.45
2023-09-29T02:22:22.068Z,2.60
2023-09-29T02:25:27.549Z,2.08
2023-09-29T02:28:32.165Z,2.00
2023-09-29T02:31:37.421Z,2.25
2023-09-29T02:34:40.397Z,2.45
2023-09-29T02:37:43.699Z,2.17
2023-09-29T02:40:48.214Z,2.45
2023-09-29T02:43:50.953Z,2.20
2023-09-29T02:46:53.878Z,2.58
2023-09-29T02:49:59.166Z,2.40
2023-09-29T02:53:06.346Z,1.90
2023-09-29T02:56:12.938Z,1.95
2023-09-29T02:59:16.688Z,2.08
2023-09-29T03:02:19.464Z,2.05
2023-09-29T03:05:23.172Z,2.70
2023-09-29T03:08:26.223Z,2.47
2023-09-29T03:11:30.824Z,2.38
2023-09-29T03:14:33.851Z,2.08
2023-09-29T03:17:38.269Z,1.90
2023-09-29T03:20:41.384Z,2.35
2023-09-29T03:23:44.725Z,2.28
2023-09-29T03:26:50.521Z,2.13
2023-09-29T03:29:53.330Z,2.15
2023-09-29T03:32:57.163Z,2.33
2023-09-29T03:36:00.317Z,2.05
2023-09-29T03:39:06.241Z,2.40
2023-09-29T03:42:10.368Z,2.13
2023-09-29T03:45:15.434Z,2.22
2023-09-29T03:48:18.664Z,1.88
2023-09-29T03:51:24.997Z,2.42
2023-09-29T03:54:28.002Z,2.40
2023-09-29T03:57:33.060Z,2.03
2023-09-29T04:00:36.068Z,2.38
2023-09-29T04:03:39.131Z,2.10
2023-09-29T04:06:42.015Z,2.25
2023-09-29T04:09:44.862Z,2.20
2023-09-29T04:12:49.763Z,2.45
2023-09-29T04:15:52.714Z,2.22
2023-09-29T04:18:55.947Z,2.15
2023-09-29T04:21:59.022Z,2.53
2023-09-29T04:25:01.771Z,2.53
2023-09-29T04:28:06.433Z,2.50
2023-09-29T04:31:09.229Z,2.20
2023-09-29T04:34:12.288Z,2.13
2023-09-29T04:37:15.734Z,2.47
2023-09-29T04:40:19.418Z,2.83
2023-09-29T04:43:23.489Z,2.60
2023-09-29T04:46:26.429Z,2.25
2023-09-29T04:49:29.506Z,2.40
2023-09-29T04:52:32.313Z,2.35
2023-09-29T04:55:35.099Z,1.98
2023-09-29T04:58:39.196Z,2.47
2023-09-29T05:01:41.926Z,2.58
2023-09-29T05:04:45.721Z,2.50
2023-09-29T05:07:48.497Z,2.35
2023-09-29T05:10:51.198Z,2.53
2023-09-29T05:13:57.260Z,2.22
2023-09-29T05:17:01.056Z,2.03
2023-09-29T05:20:06.234Z,2.38
2023-09-29T05:23:08.997Z,2.42
2023-09-29T05:26:11.896Z,2.42
2023-09-29T05:29:16.157Z,2.33
2023-09-29T05:32:18.820Z,2.10
2023-09-29T05:35:21.565Z,2.60
2023-09-29T05:38:24.497Z,2.58
2023-09-29T05:41:27.260Z,2.38
2023-09-29T05:44:31.370Z,2.45
2023-09-29T05:47:34.244Z,2.00
2023-09-29T05:50:37.155Z,2.85
2023-09-29T05:53:40.973Z,2.03
2023-09-29T05:56:43.773Z,2.33
2023-09-29T05:59:47.981Z,2.40
2023-09-29T06:02:50.893Z,2.10
2023-09-29T06:05:53.749Z,2.35
2023-09-29T06:08:56.572Z,2.10
2023-09-29T06:11:59.373Z,2.13
2023-09-29T06:15:04.005Z,2.13
2023-09-29T06:18:07.186Z,2.55
2023-09-29T06:21:10.256Z,2.30
2023-09-29T06:24:13.073Z,2.22
2023-09-29T06:27:16.353Z,2.78
2023-09-29T06:30:20.847Z,3.00
2023-09-29T06:33:23.810Z,2.67
2023-09-29T06:36:26.600Z,3.00
2023-09-29T06:39:29.411Z,3.20
2023-09-29T06:42:32.290Z,3.28
2023-09-29T06:45:56.950Z,2.90
2023-09-29T06:49:00.246Z,3.00
2023-09-29T06:52:03.201Z,2.70
2023-09-29T06:55:06.842Z,2.72
2023-09-29T06:58:09.622Z,4.20
2023-09-29T07:01:13.721Z,5.40
2023-09-29T07:04:16.787Z,4.45
2023-09-29T07:07:19.638Z,4.30
2023-09-29T07:10:22.367Z,5.68
2023-09-29T07:13:25.136Z,6.35
2023-09-29T07:16:29.834Z,4.45
2023-09-29T07:19:44.981Z,4.82
2023-09-29T07:22:48.839Z,3.50
2023-09-29T07:25:54.262Z,3.75
2023-09-29T07:29:02.304Z,2.88
2023-09-29T07:32:06.621Z,2.85
2023-09-29T07:35:10.451Z,3.38
2023-09-29T07:38:14.175Z,3.75
2023-09-29T07:41:16.921Z,3.00
2023-09-29T07:44:19.642Z,2.83
2023-09-29T07:47:23.661Z,2.80
2023-09-29T07:50:26.498Z,2.42
2023-09-29T07:53:29.199Z,2.60
2023-09-29T07:56:31.890Z,2.92
2023-09-29T07:59:34.724Z,2.70
2023-09-29T08:02:39.168Z,3.10
2023-09-29T08:05:41.975Z,2.85
2023-09-29T08:08:45.040Z,2.47
2023-09-29T08:11:47.896Z,2.53
2023-09-29T08:14:51.592Z,2.25
2023-09-29T08:17:55.811Z,2.55
2023-09-29T08:20:58.613Z,2.55
2023-09-29T08:24:04.046Z,2.67
2023-09-29T08:27:07.612Z,2.72
2023-09-29T08:30:11.442Z,2.72
2023-09-29T08:33:22.926Z,2.10
2023-09-29T08:36:35.698Z,2.67
2023-09-29T08:39:40.131Z,2.78
2023-09-29T08:42:50.967Z,2.72
2023-09-29T08:45:58.611Z,2.70
2023-09-29T08:49:05.336Z,2.58
2023-09-29T08:52:10.584Z,2.50
2023-09-29T08:55:14.377Z,2.22
2023-09-29T08:58:17.113Z,2.45
2023-09-29T09:01:22.597Z,2.30
2023-09-29T09:04:28.573Z,2.33
2023-09-29T09:07:32.819Z,2.40
2023-09-29T09:10:36.817Z,2.30
2023-09-29T09:13:39.582Z,2.63
2023-09-29T09:16:42.353Z,2.78
2023-09-29T09:19:52.302Z,2.50
2023-09-29T09:22:59.811Z,2.08
2023-09-29T09:26:13.078Z,2.53
2023-09-29T09:29:18.055Z,1.73
2023-09-29T09:32:27.938Z,1.98
2023-09-29T09:35:35.689Z,1.75
2023-09-29T09:38:39.114Z,1.88
2023-09-29T09:41:44.513Z,1.70
2023-09-29T09:44:47.327Z,1.70
2023-09-29T09:47:51.242Z,1.60
2023-09-29T09:50:59.855Z,1.63
2023-09-29T09:54:04.470Z,1.70
2023-09-29T09:57:12.814Z,1.83
2023-09-29T10:00:16.137Z,1.73
2023-09-29T10:03:20.022Z,1.75
2023-09-29T10:06:26.558Z,1.80
2023-09-29T10:09:29.290Z,1.95
2023-09-29T10:12:33.251Z,1.92
2023-09-29T10:15:36.431Z,2.05
2023-09-29T10:18:39.266Z,2.08
2023-09-29T10:21:46.465Z,1.63
2023-09-29T10:24:49.468Z,1.90
2023-09-29T10:28:01.037Z,1.90
2023-09-29T10:31:10.822Z,1.83
2023-09-29T10:34:21.256Z,1.60
2023-09-29T10:37:27.316Z,1.63
2023-09-29T10:40:33.462Z,1.70
2023-09-29T10:43:37.335Z,1.52
2023-09-29T10:46:51.898Z,1.63
2023-09-29T10:49:56.478Z,1.75
2023-09-29T10:53:00.578Z,1.50
2023-09-29T10:56:05.060Z,1.48
2023-09-29T10:59:11.027Z,1.83
2023-09-29T11:02:14.317Z,1.73
2023-09-29T11:05:18.123Z,1.70
2023-09-29T11:08:32.329Z,2.08
2023-09-29T11:11:37.192Z,1.52
2023-09-29T11:14:41.401Z,1.80
2023-09-29T11:17:46.630Z,1.85
2023-09-29T11:20:53.011Z,1.98
2023-09-29T11:23:57.887Z,1.90
2023-09-29T11:27:02.235Z,2.00
2023-09-29T11:30:07.694Z,2.03
2023-09-29T11:33:12.136Z,2.30
2023-09-29T11:36:16.561Z,1.95
2023-09-29T11:39:23.482Z,2.08
2023-09-29T11:42:27.539Z,1.75
2023-09-29T11:45:30.423Z,1.67
2023-09-29T11:48:33.320Z,1.83
2023-09-29T11:51:36.831Z,1.95
2023-09-29T11:54:41.899Z,1.88
2023-09-29T11:57:44.770Z,1.98
2023-09-29T12:00:49.076Z,1.90
2023-09-29T12:03:52.667Z,1.80
2023-09-29T12:06:55.626Z,1.92
2023-09-29T12:10:00.585Z,1.95
2023-09-29T12:13:05.668Z,1.80
2023-09-29T12:16:10.832Z,2.05
2023-09-29T12:19:14.198Z,1.63
2023-09-29T12:22:17.188Z,2.17
2023-09-29T12:25:21.317Z,2.00
2023-09-29T12:28:24.076Z,1.90
2023-09-29T12:31:26.922Z,2.03
2023-09-29T12:34:33.448Z,1.67
2023-09-29T12:37:36.196Z,2.00
2023-09-29T12:40:40.499Z,1.92
2023-09-29T12:43:44.540Z,1.98
2023-09-29T12:46:47.846Z,1.85
2023-09-29T12:49:51.729Z,1.75
2023-09-29T12:52:54.490Z,1.75
2023-09-29T12:55:59.411Z,1.58
2023-09-29T12:59:02.243Z,1.40
2023-09-29T13:02:05.350Z,2.15
2023-09-29T13:05:10.929Z,1.80
2023-09-29T13:08:13.758Z,2.10
2023-09-29T13:11:19.350Z,1.65
2023-09-29T13:14:23.957Z,2.00
2023-09-29T13:17:26.943Z,1.75
2023-09-29T13:20:29.734Z,2.08
2023-09-29T13:23:32.696Z,1.85
2023-09-29T13:26:37.162Z,1.73
2023-09-29T13:29:40.035Z,1.67
2023-09-29T13:32:43.096Z,1.58
2023-09-29T13:35:45.993Z,1.85
2023-09-29T13:38:49.386Z,2.00
2023-09-29T13:41:54.092Z,1.90
2023-09-29T13:44:57.224Z,1.83
2023-09-29T13:48:02.432Z,1.75
2023-09-29T13:51:06.259Z,1.65
2023-09-29T13:54:09.548Z,1.73
2023-09-29T13:57:13.691Z,1.73
2023-09-29T14:00:19.445Z,1.73
2023-09-29T14:03:22.406Z,1.70
2023-09-29T14:06:25.437Z,1.60
2023-09-29T14:09:28.795Z,1.55
2023-09-29T14:12:37.394Z,1.90
2023-09-29T14:15:40.354Z,1.90
2023-09-29T14:18:44.105Z,1.55
2023-09-29T14:21:48.696Z,1.73
2023-09-29T14:24:51.552Z,1.85
2023-09-29T14:27:55.658Z,2.15
2023-09-29T14:30:58.398Z,1.90
2023-09-29T14:34:01.303Z,1.80
2023-09-29T14:37:05.070Z,2.28
2023-09-29T14:40:09.822Z,2.25
2023-09-29T14:43:14.048Z,2.10
2023-09-29T14:46:17.865Z,2.05
2023-09-29T14:49:20.930Z,2.42
2023-09-29T14:52:23.676Z,1.90
2023-09-29T14:55:27.657Z,2.47
2023-09-29T14:58:31.755Z,1.67
2023-09-29T15:01:34.488Z,2.00
2023-09-29T15:04:55.487Z,2.17
2023-09-29T15:07:59.484Z,2.03
2023-09-29T15:11:03.475Z,2.00
2023-09-29T15:14:08.124Z,2.13
2023-09-29T15:17:10.903Z,2.00
2023-09-29T15:20:16.336Z,2.35
2023-09-29T15:23:19.954Z,2.50
2023-09-29T15:26:23.334Z,2.90
2023-09-29T15:29:27.460Z,2.50
2023-09-29T15:32:30.286Z,2.50
2023-09-29T15:35:36.012Z,3.08
2023-09-29T15:38:40.446Z,2.92
2023-09-29T15:41:43.171Z,3.40
2023-09-29T15:44:47.521Z,3.20
2023-09-29T15:47:50.554Z,3.70
2023-09-29T15:50:56.329Z,3.67
2023-09-29T15:54:00.193Z,4.20
2023-09-29T15:57:03.346Z,4.47
2023-09-29T16:00:09.521Z,5.53
2023-09-29T16:03:12.900Z,6.18
2023-09-29T16:06:15.869Z,5.45
2023-09-29T16:09:18.621Z,6.88
2023-09-29T16:12:21.509Z,6.40
2023-09-29T16:15:26.002Z,6.03
2023-09-29T16:18:29.624Z,7.05
2023-09-29T16:21:32.775Z,6.85
2023-09-29T16:24:36.270Z,7.93
2023-09-29T16:27:39.106Z,7.88
2023-09-29T16:30:43.942Z,10.18
2023-09-29T16:33:47.065Z,10.18
2023-09-29T16:36:50.056Z,9.93
2023-09-29T16:39:52.898Z,10.27
2023-09-29T16:42:56.562Z,10.18
2023-09-29T16:46:01.002Z,12.13
2023-09-29T16:49:04.309Z,10.85
2023-09-29T16:52:07.907Z,11.82
2023-09-29T16:55:12.148Z,11.40
2023-09-29T16:58:14.994Z,12.90
2023-09-29T17:01:19.996Z,11.23
2023-09-29T17:04:22.870Z,12.23
2023-09-29T17:07:25.962Z,11.68
2023-09-29T17:10:32.040Z,11.55
2023-09-29T17:13:36.493Z,10.32
2023-09-29T17:16:41.008Z,10.18
2023-09-29T17:19:45.151Z,10.73
2023-09-29T17:22:48.030Z,10.20
2023-09-29T17:25:50.912Z,9.88
2023-09-29T17:28:53.800Z,10.27
2023-09-29T17:31:58.016Z,8.93
2023-09-29T17:35:02.098Z,10.23
2023-09-29T17:38:05.345Z,9.68
2023-09-29T17:41:10.753Z,10.23
2023-09-29T17:44:15.033Z,10.35
2023-09-29T17:47:19.345Z,10.25
2023-09-29T17:50:22.313Z,9.68
2023-09-29T17:53:25.429Z,9.50
2023-09-29T17:56:28.525Z,8.85
2023-09-29T17:59:33.530Z,8.45
2023-09-29T18:02:37.766Z,8.85
2023-09-29T18:05:40.706Z,9.30
2023-09-29T18:08:43.768Z,9.73
2023-09-29T18:11:46.874Z,9.80
2023-09-29T18:14:50.232Z,8.68
2023-09-29T18:17:54.859Z,9.00
2023-09-29T18:21:01.002Z,8.80
2023-09-29T18:24:06.750Z,9.25
2023-09-29T18:27:10.226Z,7.32
2023-09-29T18:30:13.813Z,6.45
2023-09-29T18:33:18.309Z,6.10
2023-09-29T18:36:21.294Z,6.68
2023-09-29T18:39:24.235Z,5.95
2023-09-29T18:42:27.291Z,6.43
2023-09-29T18:45:30.765Z,5.75
2023-09-29T18:48:35.180Z,6.68
2023-09-29T18:51:38.967Z,6.45
2023-09-29T18:54:42.047Z,6.20
2023-09-29T18:57:44.753Z,6.13
2023-09-29T19:00:47.657Z,6.38
2023-09-29T19:03:51.840Z,6.20
2023-09-29T19:06:54.902Z,6.07
2023-09-29T19:09:58.192Z,6.38
2023-09-29T19:13:01.442Z,7.03
2023-09-29T19:16:06.877Z,5.43
2023-09-29T19:19:11.756Z,5.53
2023-09-29T19:22:14.535Z,5.75
2023-09-29T19:25:18.447Z,5.70
2023-09-29T19:28:21.404Z,5.43
2023-09-29T19:31:26.902Z,5.07
2023-09-29T19:34:31.406Z,4.90
2023-09-29T19:37:34.302Z,5.65
2023-09-29T19:40:37.137Z,4.80
2023-09-29T19:43:39.994Z,5.70
2023-09-29T19:46:43.201Z,4.40
2023-09-29T19:49:47.646Z,4.40
2023-09-29T19:52:50.574Z,4.25
2023-09-29T19:55:53.692Z,3.60
2023-09-29T19:58:56.618Z,4.65
2023-09-29T20:02:00.288Z,4.43
2023-09-29T20:05:04.833Z,4.85
2023-09-29T20:08:07.889Z,4.28
2023-09-29T20:11:11.059Z,4.63
2023-09-29T20:14:15.658Z,4.13
2023-09-29T20:17:21.114Z,3.42
2023-09-29T20:20:25.616Z,3.30
2023-09-29T20:23:30.018Z,3.50
2023-09-29T20:26:35.892Z,3.75
2023-09-29T20:29:39.431Z,3.60
2023-09-29T20:32:42.334Z,3.00
2023-09-29T20:35:47.776Z,3.10
2023-09-29T20:38:50.882Z,2.17
2023-09-29T20:41:53.719Z,2.65
2023-09-29T20:44:56.617Z,2.33
2023-09-29T20:48:00.662Z,2.17
2023-09-29T20:51:05.222Z,2.05
2023-09-29T20:54:08.237Z,2.55
2023-09-29T20:57:11.096Z,1.92
2023-09-29T21:00:14.674Z,2.50
2023-09-29T21:03:17.707Z,2.30
2023-09-29T21:06:21.945Z,2.25
2023-09-29T21:09:25.013Z,2.28
2023-09-29T21:12:28.070Z,1.92
2023-09-29T21:15:30.966Z,2.00
2023-09-29T21:18:33.840Z,1.88
2023-09-29T21:21:38.655Z,1.85
2023-09-29T21:24:41.767Z,1.88
2023-09-29T21:27:44.747Z,1.77
2023-09-29T21:30:47.837Z,1.90
2023-09-29T21:33:51.223Z,2.20
2023-09-29T21:36:55.632Z,1.85
2023-09-29T21:39:58.499Z,1.75
2023-09-29T21:43:01.275Z,2.17
2023-09-29T21:46:04.234Z,1.85
2023-09-29T21:49:07.434Z,1.85
2023-09-29T21:52:11.622Z,2.03
2023-09-29T21:55:14.805Z,2.25
2023-09-29T21:58:17.736Z,1.98
2023-09-29T22:01:21.241Z,2.03
2023-09-29T22:04:24.403Z,2.00
2023-09-29T22:07:28.735Z,2.13
2023-09-29T22:10:32.846Z,2.13
2023-09-29T22:13:35.620Z,2.08
2023-09-29T22:16:38.448Z,2.13
2023-09-29T22:19:42.795Z,2.00
2023-09-29T22:22:47.217Z,1.90
2023-09-29T22:25:50.318Z,2.35
2023-09-29T22:28:53.207Z,2.00
2023-09-29T22:31:56.347Z,2.40
2023-09-29T22:35:00.395Z,1.75
2023-09-29T22:38:05.623Z,2.33
2023-09-29T22:41:08.712Z,2.20
2023-09-29T22:44:12.471Z,2.70
2023-09-29T22:47:15.626Z,2.72
2023-09-29T22:50:18.867Z,2.38
2023-09-29T22:53:24.264Z,2.45
2023-09-29T22:56:28.645Z,2.35
2023-09-29T22:59:31.764Z,1.83
2023-09-29T23:02:34.770Z,1.98
2023-09-29T23:05:38.340Z,2.35
2023-09-29T23:08:42.831Z,2.25
2023-09-29T23:11:45.805Z,2.50
2023-09-29T23:14:50.914Z,1.92
2023-09-29T23:17:55.845Z,2.25
2023-09-29T23:20:58.827Z,1.80
2023-09-29T23:24:02.979Z,1.90
2023-09-29T23:27:05.875Z,1.85
2023-09-29T23:30:10.484Z,1.83
2023-09-29T23:33:13.573Z,2.03
2023-09-29T23:36:20.664Z,2.45
2023-09-29T23:39:25.077Z,1.90
2023-09-29T23:42:28.991Z,1.90
2023-09-29T23:45:32.250Z,2.10
2023-09-29T23:48:35.124Z,2.15
2023-09-29T23:51:38.035Z,2.08
2023-09-29T23:54:42.593Z,1.95
2023-09-29T23:57:45.857Z,1.77
